Overview Statistics Trail Chart Weather Telemetry Raw packets
 

This is the latest recevied packets stored in our database for station/object WBGY. If no packets are shown the sender has not sent any packets the latest 24 hours.

If you compare the raw packets with similar data from other websites it may differ (especially the path), the reason is that we are not collecting packets from the same APRS-IS servers. Each APRS-IS server performes duplicate filtering, and which packet that is considered to be a duplicate may differ depending on which APRS-IS server you receive your data from.

<< 1 2 3 >>

1778127147: PJUWX-0>APRPJW,TCPIP*,qAC,APRPJU:;WBGY *T#146,131,70,3,0,125,00000000

1778127147: PJUWX-0>APRPJW,TCPIP*,qAC,APRPJU:;WBGY *070400z0115.00N/11126.00E'000/003 9M2PJU Airports WX (Fair) | 31C 70%RH | Load:0.67,0.52,0.43 | D:80% M:94% | UT:1400 days

1778127146: PJUWX-0>APRPJW,TCPIP*,qAC,APRPJU:;WBGY *EQNS.0,1,-100,0,1,0,0,1,0,0,1,0,0,1,-100

1778127146: PJUWX-0>APRPJW,TCPIP*,qAC,APRPJU:;WBGY *UNIT.degC,%,kts,kts,degC

1778127145: PJUWX-0>APRPJW,TCPIP*,qAC,APRPJU:;WBGY *PARM.Temp,Humy,Wind,Gust,DewP

1778123520: PJUWX-0>APRPJW,TCPIP*,qAC,APRPJU:;WBGY *T#520,130,74,3,0,125,00000000

1778123520: PJUWX-0>APRPJW,TCPIP*,qAC,APRPJU:;WBGY *070300z0115.00N/11126.00E'000/003 9M2PJU Airports WX (Fair) | 30C 74%RH | Load:0.35,0.46,0.40 | D:80% M:93% | UT:1400 days

1778119922: PJUWX-0>APRPJW,TCPIP*,qAC,APRPJU:;WBGY *T#922,128,88,1,0,126,00000000

1778119921: PJUWX-0>APRPJW,TCPIP*,qAC,APRPJU:;WBGY *070200z0115.00N/11126.00E'000/001 9M2PJU Airports WX (Fair) | 28C 88%RH | Load:0.33,0.49,0.51 | D:80% M:93% | UT:1400 days

1778116321: PJUWX-0>APRPJW,TCPIP*,qAC,APRPJU:;WBGY *T#322,127,88,1,0,125,00000000

1778116321: PJUWX-0>APRPJW,TCPIP*,qAC,APRPJU:;WBGY *070100z0115.00N/11126.00E'000/001 9M2PJU Airports WX (Fair) | 27C 88%RH | Load:0.46,0.36,0.40 | D:80% M:93% | UT:1400 days

1778112746: PJUWX-0>APRPJW,TCPIP*,qAC,APRPJU:;WBGY *T#745,126,94,2,0,125,00000000

1778112746: PJUWX-0>APRPJW,TCPIP*,qAC,APRPJU:;WBGY *070000z0115.00N/11126.00E'000/002 9M2PJU Airports WX (Fair) | 26C 94%RH | Load:0.42,0.48,0.44 | D:80% M:97% | UT:1400 days

1778112745: PJUWX-0>APRPJW,TCPIP*,qAC,APRPJU:;WBGY *EQNS.0,1,-100,0,1,0,0,1,0,0,1,0,0,1,-100

1778112745: PJUWX-0>APRPJW,TCPIP*,qAC,APRPJU:;WBGY *UNIT.degC,%,kts,kts,degC

1778112744: PJUWX-0>APRPJW,TCPIP*,qAC,APRPJU:;WBGY *PARM.Temp,Humy,Wind,Gust,DewP

1778109120: PJUWX-0>APRPJW,TCPIP*,qAC,APRPJU:;WBGY *T#120,125,100,0,0,125,00000000

1778109119: PJUWX-0>APRPJW,TCPIP*,qAC,APRPJU:;WBGY *062300z0115.00N/11126.00E'000/000 9M2PJU Airports WX (Fair) | 25C 100%RH | Load:0.54,0.45,0.43 | D:80% M:97% | UT:1400 days

1778105521: PJUWX-0>APRPJW,TCPIP*,qAC,APRPJU:;WBGY *T#521,125,94,0,0,124,00000000

1778105521: PJUWX-0>APRPJW,TCPIP*,qAC,APRPJU:;WBGY *062200z0115.00N/11126.00E'000/000 9M2PJU Airports WX (Fair) | 25C 94%RH | Load:0.40,0.54,0.50 | D:80% M:97% | UT:1400 days

1778101921: PJUWX-0>APRPJW,TCPIP*,qAC,APRPJU:;WBGY *T#921,125,100,0,0,125,00000000

1778101921: PJUWX-0>APRPJW,TCPIP*,qAC,APRPJU:;WBGY *062100z0115.00N/11126.00E'000/000 9M2PJU Airports WX (Fair) | 25C 100%RH | Load:0.39,0.39,0.38 | D:80% M:96% | UT:1400 days

1778098347: PJUWX-0>APRPJW,TCPIP*,qAC,APRPJU:;WBGY *T#346,125,100,0,0,125,00000000

1778098347: PJUWX-0>APRPJW,TCPIP*,qAC,APRPJU:;WBGY *062000z0115.00N/11126.00E'000/000 9M2PJU Airports WX (Fair) | 25C 100%RH | Load:0.42,0.41,0.41 | D:80% M:96% | UT:1400 days

1778098346: PJUWX-0>APRPJW,TCPIP*,qAC,APRPJU:;WBGY *EQNS.0,1,-100,0,1,0,0,1,0,0,1,0,0,1,-100